createdAt,value
2023-05-17T00:01:56.841Z,76.65
2023-05-17T00:05:02.435Z,76.30
2023-05-17T00:08:09.365Z,76.36
2023-05-17T00:11:18.021Z,76.48
2023-05-17T00:14:24.685Z,76.10
2023-05-17T00:17:30.322Z,76.39
2023-05-17T00:20:37.015Z,76.29
2023-05-17T00:23:42.531Z,76.50
2023-05-17T00:26:51.994Z,76.91
2023-05-17T00:29:57.539Z,77.36
2023-05-17T00:33:04.584Z,77.74
2023-05-17T00:36:10.543Z,76.38
2023-05-17T00:39:16.986Z,77.36
2023-05-17T00:42:25.384Z,76.20
2023-05-17T00:45:32.064Z,76.78
2023-05-17T00:48:38.038Z,77.78
2023-05-17T00:51:44.941Z,76.23
2023-05-17T00:54:50.572Z,77.26
2023-05-17T00:58:00.700Z,76.93
2023-05-17T01:01:08.684Z,76.52
2023-05-17T01:04:16.300Z,76.34
2023-05-17T01:07:22.259Z,76.94
2023-05-17T01:10:42.393Z,76.09
2023-05-17T01:14:01.961Z,76.19
2023-05-17T01:17:19.912Z,76.98
2023-05-17T01:20:34.511Z,76.96
2023-05-17T01:24:01.925Z,77.03
2023-05-17T01:27:15.890Z,76.78
2023-05-17T01:30:26.498Z,77.40
2023-05-17T01:33:34.447Z,76.67
2023-05-17T01:36:43.156Z,76.29
2023-05-17T01:39:50.208Z,76.80
2023-05-17T01:43:13.460Z,76.45
2023-05-17T01:46:31.479Z,75.95
2023-05-17T01:49:43.668Z,76.30
2023-05-17T01:52:57.188Z,76.54
2023-05-17T01:56:10.771Z,76.71
2023-05-17T01:59:27.076Z,76.51
2023-05-17T02:02:33.773Z,76.30
2023-05-17T02:05:40.142Z,76.86
2023-05-17T02:08:46.493Z,76.65
2023-05-17T02:11:52.994Z,77.19
2023-05-17T02:15:01.667Z,76.26
2023-05-17T02:18:08.611Z,77.14
2023-05-17T02:21:14.273Z,76.75
2023-05-17T02:24:20.639Z,77.04
2023-05-17T02:27:26.361Z,77.03
2023-05-17T02:30:36.223Z,77.82
2023-05-17T02:33:41.915Z,77.47
2023-05-17T02:36:48.855Z,78.22
2023-05-17T02:39:54.498Z,78.35
2023-05-17T02:43:01.107Z,78.62
2023-05-17T02:46:09.560Z,77.85
2023-05-17T02:49:16.657Z,78.05
2023-05-17T02:52:22.172Z,78.44
2023-05-17T02:55:29.020Z,78.04
2023-05-17T02:58:34.931Z,77.91
2023-05-17T03:01:44.290Z,78.16
2023-05-17T03:04:50.241Z,77.81
2023-05-17T03:07:57.617Z,78.67
2023-05-17T03:11:04.202Z,79.09
2023-05-17T03:14:10.633Z,79.11
2023-05-17T03:17:18.939Z,78.24
2023-05-17T03:20:25.625Z,77.97
2023-05-17T03:23:31.174Z,78.90
2023-05-17T03:26:39.787Z,79.21
2023-05-17T03:29:47.661Z,78.66
2023-05-17T03:32:57.170Z,77.76
2023-05-17T03:36:03.188Z,78.25
2023-05-17T03:39:09.951Z,78.05
2023-05-17T03:42:18.538Z,78.72
2023-05-17T03:45:25.389Z,78.33
2023-05-17T03:48:36.024Z,78.45
2023-05-17T03:51:43.577Z,77.64
2023-05-17T03:54:49.093Z,78.46
2023-05-17T03:57:56.209Z,78.69
2023-05-17T04:01:03.711Z,78.21
2023-05-17T04:04:14.352Z,77.56
2023-05-17T04:07:20.699Z,78.50
2023-05-17T04:10:27.480Z,78.62
2023-05-17T04:13:33.027Z,78.90
2023-05-17T04:16:39.482Z,78.05
2023-05-17T04:19:47.965Z,78.75
2023-05-17T04:22:57.042Z,79.67
2023-05-17T04:26:07.074Z,79.00
2023-05-17T04:29:18.692Z,78.96
2023-05-17T04:32:24.449Z,79.33
2023-05-17T04:35:33.941Z,79.52
2023-05-17T04:38:40.332Z,78.85
2023-05-17T04:41:50.690Z,78.93
2023-05-17T04:44:58.114Z,78.10
2023-05-17T04:48:06.267Z,78.53
2023-05-17T04:51:14.594Z,78.15
2023-05-17T04:54:21.598Z,78.87
2023-05-17T04:57:28.013Z,78.60
2023-05-17T05:00:40.321Z,78.72
2023-05-17T05:03:47.497Z,78.67
2023-05-17T05:06:56.830Z,77.65
2023-05-17T05:10:04.178Z,78.52
2023-05-17T05:13:11.806Z,78.23
2023-05-17T05:16:18.479Z,78.07
2023-05-17T05:19:25.419Z,77.90
2023-05-17T05:22:35.085Z,76.82
2023-05-17T05:25:41.692Z,76.82
2023-05-17T05:28:47.614Z,77.37
2023-05-17T05:31:54.233Z,77.47
2023-05-17T05:35:02.699Z,76.66
2023-05-17T05:38:12.349Z,76.58
2023-05-17T05:41:18.375Z,75.86
2023-05-17T05:44:26.025Z,75.96
2023-05-17T05:47:35.270Z,76.19
2023-05-17T05:50:41.816Z,75.23
2023-05-17T05:53:53.377Z,76.30
2023-05-17T05:57:01.121Z,76.59
2023-05-17T06:00:09.311Z,75.96
2023-05-17T06:03:20.274Z,75.96
2023-05-17T06:06:26.099Z,75.66
2023-05-17T06:09:36.462Z,75.76
2023-05-17T06:12:42.166Z,75.38
2023-05-17T06:15:49.326Z,75.20
2023-05-17T06:18:55.124Z,76.17
2023-05-17T06:22:02.877Z,76.48
2023-05-17T06:25:14.993Z,76.83
2023-05-17T06:28:21.519Z,76.64
2023-05-17T06:31:28.359Z,76.87
2023-05-17T06:34:34.951Z,75.89
2023-05-17T06:37:40.573Z,75.73
2023-05-17T06:40:51.246Z,76.28
2023-05-17T06:43:56.832Z,77.39
2023-05-17T06:47:06.295Z,76.41
2023-05-17T06:50:12.980Z,77.73
2023-05-17T06:53:19.477Z,77.30
2023-05-17T06:56:28.722Z,76.35
2023-05-17T06:59:38.013Z,76.59
2023-05-17T07:02:44.571Z,76.70
2023-05-17T07:05:58.486Z,76.15
2023-05-17T07:09:04.271Z,77.37
2023-05-17T07:12:14.353Z,77.05
2023-05-17T07:15:19.976Z,77.41
2023-05-17T07:18:26.520Z,76.76
2023-05-17T07:21:32.324Z,76.47
2023-05-17T07:24:39.101Z,77.50
2023-05-17T07:27:47.423Z,78.00
2023-05-17T07:30:54.306Z,77.97
2023-05-17T07:34:00.154Z,78.29
2023-05-17T07:37:07.537Z,78.23
2023-05-17T07:40:14.797Z,79.19
2023-05-17T07:43:24.240Z,78.84
2023-05-17T07:46:30.306Z,79.68
2023-05-17T07:49:37.132Z,79.58
2023-05-17T07:52:43.029Z,78.92
2023-05-17T07:55:49.858Z,79.34
2023-05-17T07:58:59.719Z,80.15
2023-05-17T08:02:06.411Z,79.77
2023-05-17T08:05:13.126Z,80.26
2023-05-17T08:08:24.063Z,79.82
2023-05-17T08:11:29.838Z,80.16
2023-05-17T08:14:39.119Z,80.00
2023-05-17T08:17:44.964Z,79.84
2023-05-17T08:20:54.229Z,80.01
2023-05-17T08:24:02.781Z,79.02
2023-05-17T08:27:11.869Z,78.58
2023-05-17T08:30:28.962Z,78.72
2023-05-17T08:33:36.932Z,79.21
2023-05-17T08:36:42.842Z,78.89
2023-05-17T08:39:50.054Z,78.79
2023-05-17T08:42:56.431Z,80.07
2023-05-17T08:46:06.509Z,79.91
2023-05-17T08:49:18.341Z,78.93
2023-05-17T08:52:25.957Z,79.06
2023-05-17T08:55:36.548Z,79.14
2023-05-17T09:02:00.048Z,78.83
2023-05-17T09:05:07.320Z,78.99
2023-05-17T09:08:14.454Z,78.47
2023-05-17T09:11:30.051Z,78.47
2023-05-17T09:14:38.944Z,77.56
2023-05-17T09:17:56.059Z,77.72
2023-05-17T09:21:07.137Z,78.11
2023-05-17T09:24:14.186Z,77.99
2023-05-17T09:27:22.033Z,78.23
2023-05-17T09:30:31.863Z,78.10
2023-05-17T09:33:47.699Z,78.70
2023-05-17T09:36:57.469Z,78.47
2023-05-17T09:40:07.012Z,79.21
2023-05-17T09:43:15.638Z,79.10
2023-05-17T09:46:23.245Z,79.07
2023-05-17T09:49:33.096Z,79.31
2023-05-17T09:52:40.427Z,79.05
2023-05-17T09:55:52.310Z,79.07
2023-05-17T09:58:58.424Z,78.81
2023-05-17T10:02:13.128Z,79.08
2023-05-17T10:05:24.622Z,78.07
2023-05-17T10:08:34.103Z,78.49
2023-05-17T10:11:43.367Z,78.78
2023-05-17T10:14:51.495Z,78.89
2023-05-17T10:17:58.286Z,77.99
2023-05-17T10:21:10.975Z,77.96
2023-05-17T10:24:18.340Z,77.16
2023-05-17T10:27:26.000Z,76.87
2023-05-17T10:30:32.772Z,77.05
2023-05-17T10:33:43.067Z,77.83
2023-05-17T10:36:53.620Z,77.51
2023-05-17T10:40:01.081Z,76.64
2023-05-17T10:43:12.709Z,76.38
2023-05-17T10:46:22.840Z,76.66
2023-05-17T10:49:30.151Z,76.72
2023-05-17T10:52:49.072Z,76.92
2023-05-17T10:55:55.900Z,76.47
2023-05-17T10:59:24.877Z,76.45
2023-05-17T11:02:32.382Z,75.95
2023-05-17T11:05:39.099Z,76.85
2023-05-17T11:09:11.779Z,76.98
2023-05-17T11:12:19.347Z,76.72
2023-05-17T11:15:29.492Z,77.53
2023-05-17T11:18:51.202Z,76.25
2023-05-17T11:21:57.058Z,76.66
2023-05-17T11:25:12.795Z,76.99
2023-05-17T11:28:24.715Z,77.70
2023-05-17T11:31:35.271Z,77.00
2023-05-17T11:34:41.968Z,76.90
2023-05-17T11:37:49.694Z,76.49
2023-05-17T11:41:01.586Z,76.33
2023-05-17T11:44:08.483Z,76.92
2023-05-17T11:47:14.081Z,76.39
2023-05-17T11:50:21.525Z,76.61
2023-05-17T11:53:30.416Z,76.30
2023-05-17T11:56:45.590Z,76.92
2023-05-17T11:59:51.539Z,76.59
2023-05-17T12:02:58.209Z,77.08
2023-05-17T12:06:13.469Z,76.76
2023-05-17T12:09:21.463Z,76.78
2023-05-17T12:12:30.046Z,77.42
2023-05-17T12:15:37.576Z,78.28
2023-05-17T12:18:45.530Z,78.11
2023-05-17T12:21:52.445Z,78.29
2023-05-17T12:24:58.150Z,78.19
2023-05-17T12:28:22.849Z,77.29
2023-05-17T12:31:35.661Z,79.02
2023-05-17T12:34:42.757Z,104.00
2023-05-17T12:37:49.016Z,104.00
2023-05-17T12:40:56.029Z,104.00
2023-05-17T12:44:14.800Z,104.00
2023-05-17T12:47:22.277Z,104.00
2023-05-17T12:50:33.523Z,104.00
2023-05-17T12:53:42.070Z,104.00
2023-05-17T12:56:48.361Z,104.00
2023-05-17T12:59:58.883Z,104.00
2023-05-17T13:03:05.831Z,104.00
2023-05-17T13:06:12.682Z,104.00
2023-05-17T13:09:19.297Z,104.00
2023-05-17T13:12:28.100Z,104.00
2023-05-17T13:15:37.504Z,104.00
2023-05-17T13:18:55.982Z,104.00
2023-05-17T13:22:01.698Z,104.00
2023-05-17T13:25:09.702Z,104.00
2023-05-17T13:28:15.832Z,104.00
2023-05-17T13:31:25.133Z,104.00
2023-05-17T13:34:30.928Z,104.00
2023-05-17T13:37:38.228Z,104.00
2023-05-17T13:40:44.002Z,104.00
2023-05-17T13:43:50.495Z,104.00
2023-05-17T13:46:59.159Z,104.00
2023-05-17T13:50:07.483Z,104.00
2023-05-17T13:53:13.424Z,104.00
2023-05-17T13:56:20.524Z,104.00
2023-05-17T13:59:26.567Z,104.00
2023-05-17T14:02:35.939Z,104.00
2023-05-17T14:05:42.114Z,104.00
2023-05-17T14:08:49.942Z,104.00
2023-05-17T14:11:55.616Z,104.00
2023-05-17T14:15:02.126Z,104.00
2023-05-17T14:18:13.007Z,104.00
2023-05-17T14:21:19.598Z,104.00
2023-05-17T14:24:25.328Z,104.00
2023-05-17T14:27:31.875Z,104.00
2023-05-17T14:30:37.556Z,104.00
2023-05-17T14:33:47.053Z,104.00
2023-05-17T14:36:52.740Z,104.00
2023-05-17T14:43:10.929Z,104.00
2023-05-17T14:46:17.840Z,104.00
2023-05-17T14:49:26.310Z,104.00
2023-05-17T14:52:32.832Z,104.00
2023-05-17T14:55:38.520Z,104.00
2023-05-17T14:58:45.044Z,104.00
2023-05-17T15:01:50.962Z,104.00
2023-05-17T15:05:03.907Z,104.00
2023-05-17T15:08:11.264Z,104.00
2023-05-17T15:11:17.952Z,104.00
2023-05-17T15:14:25.300Z,104.00
2023-05-17T15:17:32.507Z,104.00
2023-05-17T15:20:42.965Z,104.00
2023-05-17T15:23:51.167Z,104.00
2023-05-17T15:26:57.185Z,104.00
2023-05-17T15:30:04.052Z,104.00
2023-05-17T15:33:10.160Z,104.00
2023-05-17T15:36:19.863Z,104.00
2023-05-17T15:39:25.984Z,104.00
2023-05-17T15:42:32.753Z,104.00
2023-05-17T15:45:38.517Z,104.00
2023-05-17T15:48:45.124Z,104.00
2023-05-17T15:51:54.027Z,104.00
2023-05-17T15:55:01.203Z,104.00
2023-05-17T15:58:09.789Z,104.00
2023-05-17T16:01:16.780Z,104.00
2023-05-17T16:04:22.544Z,104.00
2023-05-17T16:07:32.102Z,104.00
2023-05-17T16:10:38.833Z,104.00
2023-05-17T16:13:45.913Z,104.00
2023-05-17T16:16:51.556Z,104.00
2023-05-17T16:19:58.347Z,104.00
2023-05-17T16:23:07.629Z,104.00
2023-05-17T16:26:14.910Z,104.00
2023-05-17T16:29:20.697Z,104.00
2023-05-17T16:32:27.399Z,104.00
2023-05-17T16:35:33.133Z,104.00
2023-05-17T16:38:42.658Z,104.00
2023-05-17T16:41:48.279Z,104.00
2023-05-17T16:44:54.980Z,104.00
2023-05-17T16:48:00.928Z,104.00
2023-05-17T16:51:08.209Z,104.00
2023-05-17T16:54:16.904Z,104.00
2023-05-17T16:57:23.410Z,104.00
2023-05-17T17:00:30.395Z,104.00
2023-05-17T17:03:37.354Z,104.00
2023-05-17T17:06:43.553Z,104.00
2023-05-17T17:09:52.860Z,104.00
2023-05-17T17:12:58.698Z,104.00
2023-05-17T17:16:06.223Z,104.00
2023-05-17T17:19:12.431Z,104.00
2023-05-17T17:22:19.302Z,104.00
2023-05-17T17:25:28.392Z,104.00
2023-05-17T17:28:34.858Z,104.00
2023-05-17T17:31:40.874Z,104.00
2023-05-17T17:34:47.460Z,104.00
2023-05-17T17:37:53.414Z,104.00
2023-05-17T17:41:02.762Z,104.00
2023-05-17T17:44:08.755Z,104.00
2023-05-17T17:47:15.418Z,104.00
2023-05-17T17:50:21.197Z,104.00
2023-05-17T17:53:29.122Z,104.00
2023-05-17T17:56:37.897Z,104.00
2023-05-17T17:59:44.753Z,104.00
2023-05-17T18:02:50.556Z,104.00
2023-05-17T18:05:57.223Z,104.00
2023-05-17T18:09:03.136Z,104.00
2023-05-17T18:12:13.053Z,104.00
2023-05-17T18:15:18.841Z,104.00
2023-05-17T18:18:25.422Z,104.00
2023-05-17T18:21:32.379Z,104.00
2023-05-17T18:24:39.183Z,104.00
2023-05-17T18:27:47.983Z,104.00
2023-05-17T18:30:54.608Z,104.00
2023-05-17T18:34:00.292Z,104.00
2023-05-17T18:37:07.509Z,104.00
2023-05-17T18:40:14.880Z,104.00
2023-05-17T18:43:24.277Z,104.00
2023-05-17T18:46:29.982Z,104.00
2023-05-17T18:49:36.801Z,104.00
2023-05-17T18:52:42.872Z,104.00
2023-05-17T18:55:49.535Z,104.00
2023-05-17T18:59:01.633Z,104.00
2023-05-17T19:02:12.449Z,104.00
2023-05-17T19:05:18.320Z,104.00
2023-05-17T19:08:24.880Z,104.00
2023-05-17T19:11:31.849Z,104.00
2023-05-17T19:14:41.669Z,104.00
2023-05-17T19:17:47.438Z,104.00
2023-05-17T19:20:54.204Z,104.00
2023-05-17T19:24:00.923Z,104.00
2023-05-17T19:27:08.142Z,104.00
2023-05-17T19:30:16.907Z,104.00
2023-05-17T19:33:23.505Z,104.00
2023-05-17T19:36:29.480Z,104.00
2023-05-17T19:39:36.707Z,104.00
2023-05-17T19:42:42.631Z,104.00
2023-05-17T19:45:52.044Z,104.00
2023-05-17T19:48:57.720Z,104.00
2023-05-17T19:52:04.962Z,104.00
2023-05-17T19:55:10.800Z,104.00
2023-05-17T19:58:17.342Z,104.00
2023-05-17T20:01:25.858Z,104.00
2023-05-17T20:04:32.382Z,104.00
2023-05-17T20:07:38.288Z,104.00
2023-05-17T20:10:45.396Z,104.00
2023-05-17T20:13:51.809Z,104.00
2023-05-17T20:17:02.777Z,104.00
2023-05-17T20:20:10.136Z,104.00
2023-05-17T20:23:16.937Z,104.00
2023-05-17T20:26:26.165Z,104.00
2023-05-17T20:29:33.276Z,104.00
2023-05-17T20:32:42.188Z,104.00
2023-05-17T20:35:48.884Z,104.00
2023-05-17T20:38:55.191Z,104.00
2023-05-17T20:42:02.362Z,104.00
2023-05-17T20:45:11.602Z,104.00
2023-05-17T20:48:22.528Z,104.00
2023-05-17T20:51:29.262Z,104.00
2023-05-17T20:54:35.938Z,104.00
2023-05-17T20:57:42.271Z,104.00
2023-05-17T21:00:49.093Z,104.00
2023-05-17T21:03:58.451Z,104.00
2023-05-17T21:07:05.193Z,104.00
2023-05-17T21:10:12.686Z,104.00
2023-05-17T21:13:21.952Z,104.00
2023-05-17T21:16:27.512Z,104.00
2023-05-17T21:19:36.834Z,104.00
2023-05-17T21:22:42.389Z,104.00
2023-05-17T21:25:49.429Z,104.00
2023-05-17T21:28:55.170Z,104.00
2023-05-17T21:32:01.730Z,104.00
2023-05-17T21:35:11.116Z,104.00
2023-05-17T21:38:17.798Z,104.00
2023-05-17T21:41:23.450Z,104.00
2023-05-17T21:44:30.240Z,104.00
2023-05-17T21:47:36.258Z,104.00
2023-05-17T21:50:45.869Z,104.00
2023-05-17T21:53:52.853Z,104.00
2023-05-17T21:56:59.383Z,104.00
2023-05-17T22:00:05.215Z,104.00
2023-05-17T22:03:13.486Z,104.00
2023-05-17T22:06:23.098Z,104.00
2023-05-17T22:09:29.686Z,104.00
2023-05-17T22:12:35.516Z,104.00
2023-05-17T22:15:43.112Z,104.00
2023-05-17T22:18:52.661Z,104.00
2023-05-17T22:22:02.282Z,104.00
2023-05-17T22:25:09.495Z,104.00
2023-05-17T22:28:16.052Z,104.00
2023-05-17T22:31:23.061Z,104.00
2023-05-17T22:34:29.596Z,104.00
2023-05-17T22:37:38.192Z,104.00
2023-05-17T22:40:44.782Z,104.00
2023-05-17T22:43:50.796Z,104.00
2023-05-17T22:46:58.074Z,104.00
2023-05-17T22:50:03.927Z,104.00
2023-05-17T22:53:16.314Z,104.00
2023-05-17T22:56:21.941Z,104.00
2023-05-17T22:59:28.763Z,104.00
2023-05-17T23:02:34.535Z,104.00
2023-05-17T23:05:41.771Z,104.00
2023-05-17T23:08:50.435Z,104.00
2023-05-17T23:11:56.855Z,104.00
2023-05-17T23:15:02.807Z,104.00
2023-05-17T23:18:09.415Z,104.00
2023-05-17T23:21:15.099Z,104.00
2023-05-17T23:24:26.054Z,104.00
2023-05-17T23:27:31.663Z,104.00
2023-05-17T23:30:38.763Z,104.00
2023-05-17T23:33:44.675Z,104.00
2023-05-17T23:36:51.144Z,104.00
2023-05-17T23:39:59.567Z,104.00
2023-05-17T23:43:06.129Z,104.00
2023-05-17T23:46:13.958Z,104.00
2023-05-17T23:49:20.458Z,104.00
2023-05-17T23:52:26.890Z,104.00
2023-05-17T23:55:36.391Z,104.00
2023-05-17T23:58:42.053Z,104.00
